Time;durP1;ratioP1;P1;durP2;ratioP2;P2;SDS_P1;SDS_P2;PMS_P1;PMS_P2;Temp;Humidity;BMP_temperature;BMP_pressure;BME280_temperature;BME280_humidity;BME280_pressure;Samples;Min_cycle;Max_cycle;Signal;HPM_P1;HPM_P2
2023/08/17 00:00:13;;;;;;;8.30;2.33;;;;;;;19.49;94.25;101854.22;4825924;29;20074;-63
2023/08/17 00:02:41;;;;;;;7.35;2.30;;;;;;;19.54;94.12;101854.94;4825508;29;20046;-63
2023/08/17 00:05:09;;;;;;;4.75;2.30;;;;;;;19.54;93.88;101857.72;4808727;29;20066;-64
2023/08/17 00:07:37;;;;;;;6.85;2.45;;;;;;;19.44;93.72;101857.91;4824751;29;20061;-63
2023/08/17 00:10:05;;;;;;;7.38;2.30;;;;;;;19.40;93.78;101856.84;4825861;29;20069;-63
2023/08/17 00:12:33;;;;;;;6.22;2.67;;;;;;;19.43;93.91;101858.19;4809555;29;20079;-63
2023/08/17 00:15:01;;;;;;;6.10;2.13;;;;;;;19.41;93.77;101854.91;4825665;29;20046;-63
2023/08/17 00:17:30;;;;;;;5.75;2.10;;;;;;;19.35;94.22;101857.75;4808831;29;20107;-63
2023/08/17 00:19:58;;;;;;;5.28;2.05;;;;;;;19.45;93.71;101844.91;4809897;29;20533;-63
2023/08/17 00:22:25;;;;;;;5.45;2.50;;;;;;;19.35;94.17;101852.25;4825325;29;20050;-63
2023/08/17 00:24:53;;;;;;;5.88;2.30;;;;;;;19.35;94.31;101848.66;4808644;29;20050;-64
2023/08/17 00:27:21;;;;;;;4.53;2.00;;;;;;;19.27;94.73;101850.19;4824259;29;20066;-64
2023/08/17 00:29:48;;;;;;;5.90;2.40;;;;;;;19.31;94.69;101842.09;4825609;29;20061;-63
2023/08/17 00:32:17;;;;;;;7.18;2.38;;;;;;;19.35;94.77;101845.91;4793935;29;20423;-63
2023/08/17 00:34:45;;;;;;;4.45;2.05;;;;;;;19.33;95.00;101843.41;4808518;29;20054;-64
2023/08/17 00:37:13;;;;;;;8.55;2.17;;;;;;;19.24;96.00;101844.41;4824081;29;20050;-63
2023/08/17 00:39:41;;;;;;;6.30;2.08;;;;;;;19.18;96.86;101840.94;4807571;29;20046;-64
2023/08/17 00:42:09;;;;;;;4.97;1.98;;;;;;;19.13;97.48;101839.06;4824671;29;20061;-63
2023/08/17 00:44:37;;;;;;;7.35;2.40;;;;;;;19.10;97.75;101845.19;4807744;29;20058;-64
2023/08/17 00:47:05;;;;;;;6.65;2.60;;;;;;;19.01;98.64;101847.00;4808197;29;20757;-64
2023/08/17 00:49:33;;;;;;;6.85;2.15;;;;;;;19.08;98.74;101847.44;4807659;29;20046;-62
2023/08/17 00:52:02;;;;;;;5.85;2.40;;;;;;;19.16;98.27;101835.69;4824949;29;20491;-63
2023/08/17 00:54:30;;;;;;;5.72;2.03;;;;;;;19.16;98.38;101855.03;4790307;29;20051;-63
2023/08/17 00:56:59;;;;;;;8.88;2.40;;;;;;;19.08;98.94;101852.97;4805362;29;20046;-63
2023/08/17 00:59:26;;;;;;;8.32;2.60;;;;;;;18.91;100.00;101836.13;4800808;29;20058;-63
2023/08/17 01:02:02;;;;;;;8.00;2.63;;;;;;;18.84;100.00;101838.44;4805477;29;20051;-63
2023/08/17 01:04:31;;;;;;;9.68;2.67;;;;;;;18.84;100.00;101836.50;4823228;29;20058;-63
2023/08/17 01:06:59;;;;;;;5.55;2.30;;;;;;;18.87;100.00;101846.09;4824094;29;20054;-63
2023/08/17 01:09:27;;;;;;;6.25;2.13;;;;;;;18.83;100.00;101845.91;4823823;29;20050;-64
2023/08/17 01:12:16;;;;;;;8.95;2.75;;;;;;;18.76;100.00;101848.22;4825144;29;20095;-62
2023/08/17 01:14:54;;;;;;;8.50;2.60;;;;;;;18.73;100.00;101849.56;4805154;29;20477;-62
2023/08/17 01:17:38;;;;;;;6.13;2.47;;;;;;;18.71;100.00;101857.34;4790357;29;20059;-62
2023/08/17 01:20:09;;;;;;;6.00;2.20;;;;;;;18.73;100.00;101846.81;4814421;29;20087;-63
2023/08/17 01:22:38;;;;;;;7.88;2.45;;;;;;;18.82;100.00;101846.19;4807892;29;20501;-63
2023/08/17 01:25:06;;;;;;;8.98;2.70;;;;;;;18.82;100.00;101843.44;4824231;29;20058;-63
2023/08/17 01:27:39;;;;;;;5.65;2.53;;;;;;;18.83;100.00;101845.06;4824439;29;20074;-63
2023/08/17 01:30:28;;;;;;;9.80;2.85;;;;;;;18.84;100.00;101844.78;4796562;29;20198;-63
2023/08/17 01:33:07;;;;;;;7.05;2.17;;;;;;;18.85;100.00;101831.78;4793750;29;20046;-63
2023/08/17 01:36:12;;;;;;;6.15;2.33;;;;;;;18.90;100.00;101845.50;4817479;29;20054;-64
2023/08/17 01:38:56;;;;;;;9.52;2.78;;;;;;;18.80;100.00;101834.63;4804930;29;20051;-63
2023/08/17 01:41:24;;;;;;;5.20;2.22;;;;;;;18.76;100.00;101825.25;4814913;29;20047;-64
2023/08/17 01:43:53;;;;;;;9.10;2.83;;;;;;;18.73;100.00;101829.44;4824377;29;20061;-63
2023/08/17 01:46:22;;;;;;;8.38;2.90;;;;;;;18.72;100.00;101830.56;4793474;29;20055;-63
2023/08/17 01:48:50;;;;;;;5.68;2.30;;;;;;;18.70;100.00;101828.09;4793295;29;20062;-63
2023/08/17 01:51:21;;;;;;;10.43;2.90;;;;;;;18.66;100.00;101834.50;4807735;29;20047;-62
2023/08/17 01:53:49;;;;;;;6.50;2.53;;;;;;;18.62;100.00;101833.47;4809060;29;20062;-61
2023/08/17 01:56:17;;;;;;;5.75;2.15;;;;;;;18.62;100.00;101831.53;4813880;29;20046;-64
2023/08/17 01:58:45;;;;;;;6.88;2.25;;;;;;;18.70;100.00;101843.84;4810771;29;20047;-63
2023/08/17 02:01:13;;;;;;;8.20;2.30;;;;;;;18.79;100.00;101838.50;4808753;29;20506;-63
2023/08/17 02:03:41;;;;;;;7.93;2.58;;;;;;;18.77;99.85;101841.56;4808371;29;20054;-63
2023/08/17 02:06:10;;;;;;;6.45;2.40;;;;;;;18.76;99.72;101844.56;4811272;29;20054;-63
2023/08/17 02:08:39;;;;;;;5.35;2.25;;;;;;;18.70;100.00;101830.84;4811244;29;20054;-63
2023/08/17 02:11:06;;;;;;;6.95;2.25;;;;;;;18.63;100.00;101833.16;4810615;29;20121;-62
2023/08/17 02:13:34;;;;;;;8.43;2.20;;;;;;;18.58;100.00;101830.47;4827315;29;20054;-62
2023/08/17 02:16:06;;;;;;;5.55;2.40;;;;;;;18.63;99.95;101835.91;4826377;29;20061;-62
2023/08/17 02:18:34;;;;;;;5.82;1.90;;;;;;;18.62;99.59;101842.56;4796148;29;20054;-63
2023/08/17 02:21:03;;;;;;;7.13;2.85;;;;;;;18.54;99.29;101832.19;4827073;29;20062;-62
2023/08/17 02:23:30;;;;;;;4.80;2.15;;;;;;;18.49;99.57;101832.25;4811017;29;20059;-63
2023/08/17 02:25:58;;;;;;;7.88;2.35;;;;;;;18.47;99.14;101840.00;4826806;29;20062;-64
2023/08/17 02:28:26;;;;;;;8.25;3.10;;;;;;;18.38;99.22;101836.28;4805820;29;20062;-63
2023/08/17 02:30:58;;;;;;;7.57;2.38;;;;;;;18.44;99.40;101832.34;4808877;29;20148;-63
2023/08/17 02:33:28;;;;;;;7.20;2.30;;;;;;;18.44;99.24;101827.63;4793304;29;20059;-63
2023/08/17 02:35:56;;;;;;;7.85;2.05;;;;;;;18.49;99.10;101833.06;4807697;29;20503;-63
2023/08/17 02:38:24;;;;;;;9.45;2.70;;;;;;;18.49;98.33;101829.50;4806776;29;20047;-63
2023/08/17 02:40:52;;;;;;;6.60;2.55;;;;;;;18.40;98.44;101826.59;4807859;29;20055;-62
2023/08/17 02:43:20;;;;;;;6.68;2.08;;;;;;;18.31;99.23;101836.66;4808916;29;20120;-64
2023/08/17 02:45:48;;;;;;;3.38;1.95;;;;;;;18.25;99.46;101833.09;4808752;29;20527;-62
2023/08/17 02:48:15;;;;;;;5.88;2.38;;;;;;;18.33;99.26;101819.78;4791317;29;20067;-63
2023/08/17 02:50:43;;;;;;;9.18;2.80;;;;;;;18.31;99.08;101822.84;4806582;29;20050;-63
2023/08/17 02:53:11;;;;;;;5.72;2.20;;;;;;;18.33;98.88;101825.28;4777581;29;20062;-63
2023/08/17 02:55:39;;;;;;;5.90;2.22;;;;;;;18.26;98.74;101820.16;4807133;29;20058;-62
2023/08/17 02:58:08;;;;;;;8.77;2.38;;;;;;;18.31;99.07;101818.16;4792103;29;20492;-62
2023/08/17 03:00:36;;;;;;;4.45;2.15;;;;;;;18.39;98.41;101818.59;4806280;29;20062;-63
2023/08/17 03:03:05;;;;;;;6.55;2.10;;;;;;;18.43;98.18;101820.47;4807450;29;20051;-63
2023/08/17 03:05:34;;;;;;;10.15;2.50;;;;;;;18.43;98.27;101819.66;4807895;29;20058;-63
2023/08/17 03:08:02;;;;;;;8.02;2.15;;;;;;;18.36;97.92;101819.19;4807223;29;20055;-63
2023/08/17 03:10:30;;;;;;;7.38;2.30;;;;;;;18.34;98.32;101821.44;4806254;29;20507;-63
2023/08/17 03:12:59;;;;;;;5.30;1.90;;;;;;;18.31;98.06;101822.84;4805889;29;20414;-63
2023/08/17 03:15:27;;;;;;;6.72;2.25;;;;;;;18.25;98.69;101818.50;4808135;29;20553;-64
2023/08/17 03:17:54;;;;;;;5.72;2.33;;;;;;;18.22;98.65;101824.63;4806694;29;20508;-63
2023/08/17 03:20:22;;;;;;;5.70;2.15;;;;;;;18.17;99.17;101822.75;4807313;29;20055;-63
2023/08/17 03:22:50;;;;;;;8.38;2.45;;;;;;;18.16;99.18;101821.13;4808091;29;20510;-63
2023/08/17 03:25:19;;;;;;;6.57;2.33;;;;;;;18.11;99.83;101823.91;4807058;29;20084;-63
2023/08/17 03:27:46;;;;;;;6.00;2.10;;;;;;;18.10;100.00;101822.28;4806379;29;20424;-63
2023/08/17 03:30:14;;;;;;;2.80;1.77;;;;;;;18.11;99.85;101821.16;4805368;29;20103;-64
2023/08/17 03:32:42;;;;;;;6.13;2.22;;;;;;;18.15;99.55;101819.44;4807111;29;20066;-64
2023/08/17 03:35:10;;;;;;;6.93;2.30;;;;;;;18.16;99.19;101815.59;4807175;29;20099;-64
2023/08/17 03:37:38;;;;;;;5.63;2.45;;;;;;;18.20;99.13;101821.31;4807760;29;20080;-63
2023/08/17 03:40:07;;;;;;;7.80;2.20;;;;;;;18.17;99.06;101819.97;4806359;29;20058;-63
2023/08/17 03:42:35;;;;;;;3.53;1.77;;;;;;;18.15;99.18;101813.94;4790918;29;20058;-64
2023/08/17 03:45:03;;;;;;;7.45;2.30;;;;;;;18.10;99.46;101817.56;4806369;29;20043;-63
2023/08/17 03:47:31;;;;;;;5.43;2.10;;;;;;;18.09;99.53;101820.66;4806201;29;20074;-64
2023/08/17 03:49:59;;;;;;;8.38;2.42;;;;;;;18.06;100.00;101821.22;4807622;29;20059;-62
2023/08/17 03:52:26;;;;;;;4.30;2.15;;;;;;;17.96;100.00;101808.38;4805842;29;20388;-63
2023/08/17 03:54:54;;;;;;;11.80;2.67;;;;;;;17.90;100.00;101803.22;4808761;29;20058;-63
2023/08/17 03:57:22;;;;;;;8.20;2.50;;;;;;;17.82;100.00;101805.53;4807506;29;20054;-64
2023/08/17 03:59:50;;;;;;;8.23;2.50;;;;;;;17.87;100.00;101805.47;4806563;29;20374;-62
2023/08/17 04:02:18;;;;;;;6.25;2.03;;;;;;;17.84;100.00;101810.72;4804815;29;20042;-62
2023/08/17 04:04:46;;;;;;;7.47;2.20;;;;;;;17.84;100.00;101805.22;4804908;29;20130;-65
2023/08/17 04:07:22;;;;;;;7.82;2.38;;;;;;;17.86;100.00;101814.81;4804550;29;20051;-64
2023/08/17 04:09:53;;;;;;;6.47;2.00;;;;;;;17.88;100.00;101811.78;4790571;29;20047;-64
2023/08/17 04:12:21;;;;;;;6.28;2.20;;;;;;;17.84;100.00;101814.28;4804573;29;20150;-63
2023/08/17 04:14:49;;;;;;;8.57;2.60;;;;;;;17.78;100.00;101806.38;4798545;29;20091;-62
2023/08/17 04:17:17;;;;;;;9.52;2.60;;;;;;;17.84;100.00;101819.81;4806567;29;20054;-63
2023/08/17 04:19:45;;;;;;;8.43;2.40;;;;;;;17.82;100.00;101821.22;4807075;29;20050;-63
2023/08/17 04:22:12;;;;;;;6.15;2.53;;;;;;;17.77;100.00;101822.06;4808483;29;20065;-63
2023/08/17 04:24:40;;;;;;;5.43;2.13;;;;;;;17.84;100.00;101833.59;4804631;29;20063;-63
2023/08/17 04:27:08;;;;;;;10.85;2.67;;;;;;;17.96;100.00;101833.19;4792233;29;20057;-62
2023/08/17 04:29:37;;;;;;;10.38;2.55;;;;;;;18.00;100.00;101833.44;4815362;29;20148;-63
2023/08/17 04:32:05;;;;;;;6.55;2.58;;;;;;;17.81;100.00;101841.63;4808812;29;20195;-63
2023/08/17 04:34:33;;;;;;;6.45;2.55;;;;;;;17.80;100.00;101846.34;4806365;29;20043;-63
2023/08/17 04:37:02;;;;;;;6.05;2.30;;;;;;;17.89;100.00;101846.50;4807750;29;20054;-63
2023/08/17 04:39:30;;;;;;;8.23;2.55;;;;;;;17.96;100.00;101844.22;4811763;29;20051;-64
2023/08/17 04:41:58;;;;;;;11.35;2.97;;;;;;;17.98;100.00;101836.47;4808797;29;20055;-64
2023/08/17 04:44:31;;;;;;;6.25;2.28;;;;;;;17.98;100.00;101846.69;4787951;29;20065;-64
2023/08/17 04:47:00;;;;;;;8.75;2.83;;;;;;;17.98;100.00;101844.75;4794227;29;20404;-65
2023/08/17 04:49:28;;;;;;;5.35;2.67;;;;;;;17.94;100.00;101848.38;4790781;29;20046;-65
2023/08/17 04:51:55;;;;;;;8.40;2.92;;;;;;;17.82;100.00;101848.78;4777907;29;20066;-63
2023/08/17 04:54:24;;;;;;;8.95;3.35;;;;;;;17.86;100.00;101842.41;4806911;29;20054;-63
2023/08/17 04:56:51;;;;;;;7.15;2.80;;;;;;;17.84;100.00;101841.88;4783030;29;20043;-68
2023/08/17 04:59:19;;;;;;;11.73;2.67;;;;;;;17.77;100.00;101852.38;4787259;30;20055;-63
2023/08/17 05:01:47;;;;;;;6.93;2.67;;;;;;;17.77;100.00;101844.09;4772737;30;20055;-64
2023/08/17 05:04:15;;;;;;;5.70;2.50;;;;;;;17.78;100.00;101831.19;4787371;30;20059;-64
2023/08/17 05:06:43;;;;;;;8.38;2.90;;;;;;;17.74;100.00;101847.47;4803188;29;20507;-63
2023/08/17 05:09:12;;;;;;;9.70;2.75;;;;;;;17.68;100.00;101843.13;4804841;29;20050;-63
2023/08/17 05:11:41;;;;;;;5.88;2.45;;;;;;;17.67;100.00;101838.72;4808087;29;20415;-64
2023/08/17 05:14:09;;;;;;;6.38;2.55;;;;;;;17.70;100.00;101831.78;4826852;29;20057;-63
2023/08/17 05:16:37;;;;;;;6.13;2.58;;;;;;;17.68;100.00;101837.63;4793135;29;20123;-63
2023/08/17 05:19:05;;;;;;;9.05;3.13;;;;;;;17.58;100.00;101832.19;4775834;29;20066;-63
2023/08/17 05:21:34;;;;;;;7.55;2.78;;;;;;;17.50;100.00;101835.59;4791508;29;20422;-63
2023/08/17 05:24:09;;;;;;;8.40;2.50;;;;;;;17.59;100.00;101839.34;4793884;29;20061;-63
2023/08/17 05:26:37;;;;;;;8.38;2.67;;;;;;;17.71;100.00;101837.03;4804848;29;20059;-63
2023/08/17 05:29:06;;;;;;;7.13;2.63;;;;;;;17.77;100.00;101833.09;4765650;29;20059;-64
2023/08/17 05:31:34;;;;;;;7.97;2.55;;;;;;;17.82;100.00;101830.34;4774174;30;20063;-61
2023/08/17 05:34:02;;;;;;;6.47;2.53;;;;;;;17.79;100.00;101833.63;4778466;29;20062;-63
2023/08/17 05:36:30;;;;;;;6.95;2.45;;;;;;;17.73;100.00;101834.81;4789187;29;20059;-63
2023/08/17 05:38:58;;;;;;;8.90;2.40;;;;;;;17.82;100.00;101833.09;4126467;29;10000830;-63
2023/08/17 05:41:28;;;;;;;6.50;2.38;;;;;;;17.84;100.00;101824.50;4769172;30;20084;-64
2023/08/17 05:43:56;;;;;;;7.97;2.92;;;;;;;17.86;100.00;101827.78;4768441;30;20099;-64
2023/08/17 05:46:24;;;;;;;6.85;2.80;;;;;;;17.90;100.00;101833.56;4768764;30;20070;-64
2023/08/17 05:48:52;;;;;;;12.02;3.30;;;;;;;17.85;100.00;101831.69;4786062;29;20056;-62
2023/08/17 05:51:19;;;;;;;8.70;2.80;;;;;;;17.76;100.00;101839.72;4783207;29;20047;-63
2023/08/17 05:53:47;;;;;;;7.85;2.85;;;;;;;17.66;100.00;101837.91;4785265;30;20453;-64
2023/08/17 05:56:15;;;;;;;6.35;2.90;;;;;;;17.56;100.00;101843.50;4787388;29;20056;-63
2023/08/17 05:58:43;;;;;;;9.77;3.00;;;;;;;17.60;100.00;101841.00;4790829;29;20055;-63
2023/08/17 06:01:11;;;;;;;5.78;2.08;;;;;;;17.72;100.00;101844.16;4786750;29;20505;-64
2023/08/17 06:03:39;;;;;;;5.75;2.83;;;;;;;17.64;100.00;101847.56;4787243;30;20112;-64
2023/08/17 06:06:07;;;;;;;12.48;3.25;;;;;;;17.66;100.00;101850.84;4778139;29;20051;-63
2023/08/17 06:08:35;;;;;;;6.97;2.70;;;;;;;17.76;100.00;101849.94;4803505;29;20084;-63
2023/08/17 06:11:03;;;;;;;8.07;2.80;;;;;;;17.80;100.00;101862.03;4784909;30;20052;-64
2023/08/17 06:13:30;;;;;;;6.15;2.80;;;;;;;17.76;100.00;101856.25;4788424;30;20114;-64
2023/08/17 06:16:07;;;;;;;9.80;3.10;;;;;;;17.79;100.00;101854.84;4791116;29;20054;-64
2023/08/17 06:18:35;;;;;;;7.13;2.75;;;;;;;17.71;100.00;101856.31;4805745;29;20055;-63
2023/08/17 06:21:03;;;;;;;7.97;2.67;;;;;;;17.64;100.00;101859.41;4805110;29;20067;-64
2023/08/17 06:23:31;;;;;;;10.02;2.97;;;;;;;17.68;100.00;101865.19;4785453;30;20062;-63
2023/08/17 06:25:59;;;;;;;10.73;3.63;;;;;;;17.73;100.00;101861.56;4787485;29;20055;-64
2023/08/17 06:28:27;;;;;;;7.97;2.80;;;;;;;17.72;100.00;101866.22;4772002;29;20513;-64
2023/08/17 06:30:55;;;;;;;8.93;3.08;;;;;;;17.76;100.00;101864.53;4805555;29;20055;-63
2023/08/17 06:33:23;;;;;;;8.60;3.63;;;;;;;17.84;100.00;101857.59;4803685;29;20062;-64
2023/08/17 06:35:52;;;;;;;7.53;3.20;;;;;;;17.85;100.00;101864.75;4805080;29;20512;-64
2023/08/17 06:38:19;;;;;;;9.85;3.10;;;;;;;17.83;100.00;101862.28;4805868;29;20066;-63
2023/08/17 06:40:47;;;;;;;7.85;3.00;;;;;;;17.80;100.00;101867.53;4790233;29;20051;-63
2023/08/17 06:43:15;;;;;;;9.48;3.47;;;;;;;17.75;100.00;101862.06;4809223;29;20059;-64
2023/08/17 06:45:45;;;;;;;11.80;3.15;;;;;;;17.76;100.00;101861.78;4808643;29;20058;-63
2023/08/17 06:48:13;;;;;;;14.05;3.58;;;;;;;17.87;100.00;101857.00;4807956;29;20481;-64
2023/08/17 06:50:41;;;;;;;6.97;2.78;;;;;;;17.95;100.00;101852.81;4793973;29;20055;-64
2023/08/17 06:53:09;;;;;;;8.55;3.25;;;;;;;18.04;100.00;101856.56;4807464;29;20047;-64
2023/08/17 06:55:37;;;;;;;10.35;3.33;;;;;;;18.10;100.00;101856.19;4805123;29;20054;-63
2023/08/17 06:58:04;;;;;;;8.85;3.00;;;;;;;18.09;100.00;101864.78;4808589;29;20055;-63
2023/08/17 07:00:33;;;;;;;9.00;2.80;;;;;;;18.09;100.00;101859.25;4808452;29;20051;-64
2023/08/17 07:03:01;;;;;;;9.20;3.00;;;;;;;18.06;100.00;101854.31;4808275;29;20161;-64
2023/08/17 07:05:29;;;;;;;7.90;3.17;;;;;;;18.06;100.00;101860.66;4792648;29;20051;-64
2023/08/17 07:07:57;;;;;;;9.75;3.28;;;;;;;17.98;100.00;101880.59;4806548;29;20047;-64
2023/08/17 07:10:25;;;;;;;11.57;3.15;;;;;;;18.00;100.00;101872.84;4808231;29;20061;-64
2023/08/17 07:12:53;;;;;;;7.43;2.92;;;;;;;17.92;100.00;101875.41;4807084;29;20111;-63
2023/08/17 07:15:20;;;;;;;12.35;3.45;;;;;;;17.88;100.00;101878.78;4808198;29;20106;-63
2023/08/17 07:17:48;;;;;;;10.93;3.13;;;;;;;17.91;100.00;101877.38;4808318;29;20077;-63
2023/08/17 07:20:16;;;;;;;11.13;3.03;;;;;;;17.94;100.00;101873.19;4792214;29;20053;-65
2023/08/17 07:22:44;;;;;;;11.40;3.13;;;;;;;17.96;100.00;101870.97;4806857;29;20500;-64
2023/08/17 07:25:12;;;;;;;7.20;2.88;;;;;;;17.95;100.00;101872.91;4822160;29;20496;-64
2023/08/17 07:27:41;;;;;;;10.43;3.20;;;;;;;17.94;100.00;101870.44;4806360;29;20077;-63
2023/08/17 07:30:09;;;;;;;7.78;2.97;;;;;;;18.01;100.00;101863.47;4808013;29;20448;-64
2023/08/17 07:32:37;;;;;;;6.93;2.78;;;;;;;18.14;100.00;101873.00;4807916;29;20051;-63
2023/08/17 07:35:05;;;;;;;10.15;3.75;;;;;;;18.17;100.00;101874.34;4791140;29;20127;-63
2023/08/17 07:37:33;;;;;;;9.93;2.90;;;;;;;18.06;100.00;101876.38;4808161;29;20492;-63
2023/08/17 07:40:05;;;;;;;10.80;3.47;;;;;;;18.07;100.00;101872.53;4792061;29;20059;-63
2023/08/17 07:42:32;;;;;;;7.53;3.10;;;;;;;18.08;100.00;101868.63;4807796;29;20039;-65
2023/08/17 07:45:03;;;;;;;9.15;2.90;;;;;;;18.11;100.00;101870.78;4807419;29;20523;-65
2023/08/17 07:47:31;;;;;;;9.57;3.00;;;;;;;18.14;100.00;101861.97;4807257;29;20480;-64
2023/08/17 07:49:59;;;;;;;6.85;2.70;;;;;;;18.15;100.00;101871.88;4807353;29;20511;-64
2023/08/17 07:52:27;;;;;;;10.10;3.25;;;;;;;18.14;100.00;101867.47;4806864;29;20503;-64
2023/08/17 07:54:55;;;;;;;8.02;2.75;;;;;;;18.12;100.00;101858.66;4807099;29;20043;-64
2023/08/17 07:57:22;;;;;;;14.35;3.10;;;;;;;18.17;100.00;101861.38;4821084;29;20061;-64
2023/08/17 07:59:51;;;;;;;7.47;2.90;;;;;;;18.19;100.00;101869.34;4821105;29;20054;-63
2023/08/17 08:02:18;;;;;;;9.27;3.08;;;;;;;18.21;100.00;101867.94;4821233;29;20054;-65
2023/08/17 08:04:46;;;;;;;12.23;3.25;;;;;;;18.16;100.00;101861.66;4821122;29;20065;-64
2023/08/17 08:07:14;;;;;;;8.35;2.63;;;;;;;18.19;100.00;101863.84;4806936;29;20051;-64
2023/08/17 08:09:42;;;;;;;12.30;3.00;;;;;;;18.25;100.00;101873.69;4791542;29;20124;-62
2023/08/17 08:12:09;;;;;;;8.88;2.83;;;;;;;18.22;100.00;101871.50;4807310;29;20055;-64
2023/08/17 08:14:37;;;;;;;9.18;3.15;;;;;;;18.18;100.00;101871.25;4790827;29;20051;-63
2023/08/17 08:17:05;;;;;;;10.43;2.90;;;;;;;18.17;100.00;101877.91;4790860;29;20054;-64
2023/08/17 08:19:33;;;;;;;7.70;2.90;;;;;;;18.17;100.00;101879.84;4820898;29;20134;-63
2023/08/17 08:22:02;;;;;;;11.05;3.15;;;;;;;18.07;100.00;101884.38;4807091;29;20051;-64
2023/08/17 08:24:33;;;;;;;7.15;2.80;;;;;;;18.06;100.00;101874.47;4806765;29;20417;-65
2023/08/17 08:27:05;;;;;;;9.98;3.05;;;;;;;18.10;100.00;101883.78;4773766;30;20080;-63
2023/08/17 08:29:33;;;;;;;12.05;3.40;;;;;;;18.15;100.00;101880.13;4802521;29;20059;-64
2023/08/17 08:32:02;;;;;;;9.70;3.55;;;;;;;18.17;100.00;101882.63;4772789;30;20047;-64
2023/08/17 08:34:30;;;;;;;8.30;2.90;;;;;;;18.14;100.00;101884.03;4793675;29;20059;-64
2023/08/17 08:36:58;;;;;;;6.68;3.25;;;;;;;18.16;100.00;101884.56;4791362;29;20436;-64
2023/08/17 08:39:27;;;;;;;10.52;3.47;;;;;;;18.19;100.00;101883.97;4806933;29;20526;-62
2023/08/17 08:41:55;;;;;;;8.70;3.67;;;;;;;18.14;100.00;101891.47;4807081;29;20054;-64
2023/08/17 08:44:23;;;;;;;10.85;3.53;;;;;;;18.16;100.00;101886.47;4806443;29;20061;-65
2023/08/17 08:46:55;;;;;;;9.18;3.30;;;;;;;18.13;100.00;101893.41;4787599;30;20055;-63
2023/08/17 08:49:24;;;;;;;12.75;3.63;;;;;;;18.10;100.00;101894.00;4787704;30;20112;-63
2023/08/17 08:51:52;;;;;;;10.65;3.20;;;;;;;18.14;100.00;101891.47;4787495;30;20051;-64
2023/08/17 08:54:26;;;;;;;9.45;3.60;;;;;;;18.17;100.00;101883.44;4794010;29;20050;-64
2023/08/17 08:57:01;;;;;;;11.05;3.17;;;;;;;18.19;100.00;101886.72;4789729;29;20062;-64
2023/08/17 08:59:29;;;;;;;9.65;3.70;;;;;;;18.20;100.00;101871.81;4806422;29;20066;-65
2023/08/17 09:01:58;;;;;;;9.02;3.42;;;;;;;18.18;100.00;101876.78;4806957;29;20051;-63
2023/08/17 09:04:26;;;;;;;11.43;3.63;;;;;;;18.10;100.00;101867.22;4789870;29;20049;-64
2023/08/17 09:06:54;;;;;;;11.40;3.30;;;;;;;18.07;100.00;101884.38;4790593;29;20423;-65
2023/08/17 09:09:23;;;;;;;12.40;3.60;;;;;;;18.07;100.00;101876.09;4790530;29;20531;-64
2023/08/17 09:11:56;;;;;;;9.95;3.45;;;;;;;18.05;100.00;101880.25;4806625;29;20050;-63
2023/08/17 09:14:24;;;;;;;10.50;3.67;;;;;;;18.03;100.00;101876.97;4790288;29;20087;-62
2023/08/17 09:16:51;;;;;;;10.05;3.72;;;;;;;18.06;100.00;101865.34;4775371;29;20416;-64
2023/08/17 09:19:20;;;;;;;12.63;3.65;;;;;;;18.06;100.00;101868.09;4806386;29;20054;-64
2023/08/17 09:21:47;;;;;;;10.85;4.13;;;;;;;18.04;100.00;101870.34;4806388;29;20078;-64
2023/08/17 09:24:18;;;;;;;12.23;4.53;;;;;;;18.06;100.00;101870.84;4806292;29;20111;-64
2023/08/17 09:26:46;;;;;;;12.10;3.80;;;;;;;18.02;100.00;101873.41;4790674;29;20420;-64
2023/08/17 09:29:18;;;;;;;15.18;4.45;;;;;;;18.09;100.00;101851.00;4806938;29;20066;-64
2023/08/17 09:31:46;;;;;;;10.35;3.78;;;;;;;18.05;100.00;101863.72;4806553;29;20047;-64
2023/08/17 09:34:18;;;;;;;11.77;3.97;;;;;;;18.07;100.00;101867.00;4775645;29;20082;-64
2023/08/17 09:36:48;;;;;;;11.50;3.92;;;;;;;18.06;100.00;101857.91;4805726;29;20066;-64
2023/08/17 09:39:17;;;;;;;14.55;4.70;;;;;;;18.10;100.00;101856.19;4789873;29;20066;-63
2023/08/17 09:41:45;;;;;;;10.13;4.35;;;;;;;18.10;100.00;101853.44;4805810;29;20047;-64
2023/08/17 09:44:13;;;;;;;9.52;3.88;;;;;;;18.13;100.00;101857.53;4806004;29;20054;-65
2023/08/17 09:46:44;;;;;;;13.48;4.07;;;;;;;18.20;100.00;101854.44;4805871;29;20077;-63
2023/08/17 09:49:12;;;;;;;10.63;3.97;;;;;;;18.17;100.00;101850.31;4805377;29;20054;-64
2023/08/17 09:51:44;;;;;;;12.73;4.22;;;;;;;18.17;100.00;101853.09;4806095;29;20058;-64
2023/08/17 09:54:22;;;;;;;10.45;3.80;;;;;;;18.14;100.00;101844.59;4806152;29;20055;-63
2023/08/17 09:56:51;;;;;;;12.63;4.05;;;;;;;18.21;100.00;101845.88;4806114;29;20087;-63
2023/08/17 09:59:20;;;;;;;11.48;3.97;;;;;;;18.29;100.00;101845.22;4806274;29;20055;-67
2023/08/17 10:01:50;;;;;;;13.00;4.20;;;;;;;18.36;100.00;101846.81;4775225;29;20054;-64
2023/08/17 10:04:24;;;;;;;13.57;4.00;;;;;;;18.34;100.00;101849.03;4805937;29;20111;-61
2023/08/17 10:06:57;;;;;;;13.60;4.50;;;;;;;18.38;100.00;101850.91;4789899;29;20062;-61
2023/08/17 10:09:31;;;;;;;13.73;4.68;;;;;;;18.35;100.00;101850.66;4775341;29;20126;-63
2023/08/17 10:12:02;;;;;;;14.27;4.60;;;;;;;18.33;100.00;101852.88;4774820;29;20058;-63
2023/08/17 10:14:35;;;;;;;12.75;5.38;;;;;;;18.24;100.00;101839.75;4775855;29;20062;-63
2023/08/17 10:17:13;;;;;;;11.20;4.85;;;;;;;18.26;100.00;101836.72;4777803;29;20073;-62
2023/08/17 10:19:52;;;;;;;13.57;4.82;;;;;;;18.27;100.00;101833.63;4789858;29;20066;-63
2023/08/17 10:22:26;;;;;;;9.27;4.43;;;;;;;18.30;100.00;101830.31;4798696;29;20043;-64
2023/08/17 10:24:55;;;;;;;10.82;5.07;;;;;;;18.34;100.00;101821.44;4797110;29;20115;-63
2023/08/17 10:27:23;;;;;;;11.40;4.50;;;;;;;18.35;100.00;101820.31;4793559;29;20046;-63
2023/08/17 10:29:51;;;;;;;12.90;5.32;;;;;;;18.34;100.00;101821.44;4793335;29;20051;-63
2023/08/17 10:32:22;;;;;;;13.90;5.13;;;;;;;18.33;100.00;101822.53;4793413;29;20046;-64
2023/08/17 10:34:51;;;;;;;12.55;4.70;;;;;;;18.35;100.00;101817.53;4792977;29;20499;-63
2023/08/17 10:37:20;;;;;;;10.38;4.90;;;;;;;18.37;100.00;101818.06;4792442;29;20499;-63
2023/08/17 10:39:48;;;;;;;14.05;5.13;;;;;;;18.39;100.00;101824.13;4809068;29;20067;-63
2023/08/17 10:42:32;;;;;;;10.25;5.22;;;;;;;18.30;100.00;101818.44;4808681;29;20054;-64
2023/08/17 10:45:01;;;;;;;15.60;4.85;;;;;;;18.31;100.00;101823.66;4792674;29;20062;-64
2023/08/17 10:47:35;;;;;;;13.50;5.20;;;;;;;18.37;100.00;101821.66;4808922;29;20058;-65
2023/08/17 10:50:23;;;;;;;12.75;5.28;;;;;;;18.38;100.00;101819.75;4809004;29;20504;-63
2023/08/17 10:52:52;;;;;;;13.20;5.45;;;;;;;18.45;100.00;101818.25;4792780;29;20061;-63
2023/08/17 10:55:42;;;;;;;14.45;5.43;;;;;;;18.48;100.00;101825.91;4792715;29;20404;-64
2023/08/17 10:58:13;;;;;;;15.75;6.18;;;;;;;18.35;100.00;101829.44;4794948;29;20460;-64
2023/08/17 11:00:44;;;;;;;11.98;5.18;;;;;;;18.41;100.00;101824.66;4808687;29;20070;-63
2023/08/17 11:03:20;;;;;;;11.77;5.43;;;;;;;18.39;100.00;101832.41;4808790;29;20077;-64
2023/08/17 11:05:58;;;;;;;13.48;5.85;;;;;;;18.46;100.00;101828.16;4808773;29;20103;-63
2023/08/17 11:08:38;;;;;;;17.95;6.68;;;;;;;18.55;100.00;101824.75;4807085;29;20512;-64
2023/08/17 11:11:13;;;;;;;13.90;6.13;;;;;;;18.56;100.00;101829.94;4808075;29;20127;-64
2023/08/17 11:13:43;;;;;;;14.13;6.95;;;;;;;18.60;100.00;101825.47;4792101;29;20472;-64
2023/08/17 11:16:13;;;;;;;14.80;6.13;;;;;;;18.58;100.00;101826.91;4791977;29;20512;-65
2023/08/17 11:18:46;;;;;;;15.70;5.97;;;;;;;18.63;100.00;101824.88;4808200;29;20046;-64
2023/08/17 11:21:14;;;;;;;16.08;6.25;;;;;;;18.64;100.00;101821.03;4791452;29;20058;-64
2023/08/17 11:23:45;;;;;;;14.43;5.88;;;;;;;18.64;100.00;101832.06;4777574;29;20065;-64
2023/08/17 11:26:19;;;;;;;15.52;5.90;;;;;;;18.64;100.00;101828.47;4792145;29;20529;-64